Portada
METAR-TAF:

METAR-TAF

Aeroports :

Madrid-Cuatro Vientos, Espanya

latitud: 40-23N, longitud: 003-47W, altitud: 690 m

Observació

L'informe es va fer fa 18 minuts, a les 17:00 UTC
Vent 4 kt amb direcció variable
Temperatura 31°C
Humitat 29%
Pressió 1020 hPa
Visibilitat 10 km o més
sense núvols per sota de 1500 mi sense presència de cumulonimbus.

METAR: LEVS 181700Z VRB04KT CAVOK 31/11 Q1020

Hora: 19:18 (17:18 UTC)

Pronòstic

L'informe es va fer fa 3 hores i 18 minuts, a les 14:00 UTC
Pronòstic vàlid del 18 a les 15 UTC al 18 a les 24 UTC
Vent 5 kt amb direcció variable
Visibilitat 10 km o més
sense núvols per sota de 1500 mi sense presència de cumulonimbus.

TAF: LEVS 181400Z 1815/1824 VRB05KT CAVOK

Observacions i pronòstics meteorològics de més de 4000 aeroports (METAR i TAF).

Les estacions disponibles són els punts grocs i vermells al mapa.

Posi el ratolí al punt desitjat per veure el nom de l'estació.

Feu clic per veure les observacions i els pronòstics meteorològics.

Per canviar el mapa: feu clic els botons verds amb una creu de color negre per apropar; al botó verd amb un guió per allunyar la imatge; o en les fletxes verdes per a mapes adjacents.


METAR-TAF: